createdAt,value
2019-02-20T00:08:58.060Z,22.8
2019-02-20T00:14:03.188Z,22.9
2019-02-20T00:19:08.298Z,22.8
2019-02-20T00:24:13.587Z,22.8
2019-02-20T00:29:18.765Z,22.8
2019-02-20T00:34:24.443Z,22.8
2019-02-20T00:39:30.333Z,22.8
2019-02-20T00:49:40.092Z,22.7
2019-02-20T00:54:46.193Z,22.8
2019-02-20T00:59:52.080Z,22.8
2019-02-20T01:04:57.357Z,22.8
2019-02-20T01:10:03.272Z,22.8
2019-02-20T01:15:08.424Z,22.7
2019-02-20T01:20:14.024Z,22.7
2019-02-20T01:25:19.189Z,22.7
2019-02-20T01:30:24.788Z,22.7
2019-02-20T01:35:29.983Z,22.7
2019-02-20T01:40:35.663Z,22.7
2019-02-20T01:45:41.517Z,22.7
2019-02-20T01:50:47.000Z,22.7
2019-02-20T01:55:52.536Z,22.7
2019-02-20T02:00:58.212Z,22.7
2019-02-20T02:06:03.747Z,22.7
2019-02-20T02:11:08.825Z,22.6
2019-02-20T02:16:14.266Z,22.7
2019-02-20T02:21:20.590Z,22.6
2019-02-20T02:26:26.554Z,22.6
2019-02-20T02:31:31.940Z,22.6
2019-02-20T02:36:38.224Z,22.6
2019-02-20T02:41:46.657Z,22.6
2019-02-20T02:46:53.527Z,22.6
2019-02-20T02:51:58.528Z,22.6
2019-02-20T02:57:03.802Z,22.6
2019-02-20T03:02:08.814Z,22.6
2019-02-20T03:07:14.889Z,22.6
2019-02-20T03:12:20.164Z,22.6
2019-02-20T03:17:26.296Z,22.6
2019-02-20T03:22:31.372Z,22.6
2019-02-20T03:27:37.266Z,22.6
2019-02-20T03:32:42.445Z,22.6
2019-02-20T03:37:47.705Z,22.6
2019-02-20T03:42:52.887Z,22.5
2019-02-20T03:47:58.812Z,22.5
2019-02-20T03:53:03.919Z,22.5
2019-02-20T03:58:09.749Z,22.5
2019-02-20T04:03:14.772Z,22.5
2019-02-20T04:08:20.783Z,22.5
2019-02-20T04:13:25.916Z,22.5
2019-02-20T04:18:31.322Z,22.5
2019-02-20T04:23:37.091Z,22.5
2019-02-20T04:28:43.344Z,22.5
2019-02-20T04:33:48.942Z,22.5
2019-02-20T04:38:54.262Z,22.5
2019-02-20T04:43:59.640Z,22.5
2019-02-20T04:49:05.346Z,22.5
2019-02-20T04:54:15.461Z,22.7
2019-02-20T05:04:14.424Z,22.8
2019-02-20T05:09:20.271Z,22.9
2019-02-20T05:14:26.186Z,23
2019-02-20T05:24:35.578Z,23.1
2019-02-20T05:29:40.821Z,23.1
2019-02-20T05:34:46.564Z,23.2
2019-02-20T05:39:51.835Z,23.2
2019-02-20T05:44:56.994Z,23.3
2019-02-20T05:50:02.974Z,23.3
2019-02-20T05:55:07.992Z,23.3
2019-02-20T06:00:13.126Z,23.3
2019-02-20T06:05:18.799Z,23.2
2019-02-20T06:10:24.930Z,23.2
2019-02-20T06:15:30.728Z,23.2
2019-02-20T06:20:36.741Z,23.2
2019-02-20T06:25:41.859Z,23.2
2019-02-20T06:30:47.120Z,23.2
2019-02-20T06:35:52.339Z,23.1
2019-02-20T06:40:58.120Z,23.1
2019-02-20T06:46:05.560Z,23.1
2019-02-20T06:51:10.899Z,23.1
2019-02-20T06:56:16.564Z,23.2
2019-02-20T07:01:22.064Z,23.1
2019-02-20T07:06:28.210Z,23.2
2019-02-20T07:11:33.729Z,23.2
2019-02-20T07:16:40.169Z,23.2
2019-02-20T07:21:45.537Z,23.2
2019-02-20T07:31:55.509Z,23.2
2019-02-20T07:37:00.979Z,23.3
2019-02-20T07:42:06.639Z,23.3
2019-02-20T07:47:11.897Z,23.4
2019-02-20T07:52:17.482Z,23.3
2019-02-20T07:57:22.476Z,23.3
2019-02-20T08:02:27.627Z,23.4
2019-02-20T08:07:32.689Z,23.4
2019-02-20T08:12:38.356Z,23.4
2019-02-20T08:17:44.120Z,23.4
2019-02-20T08:22:49.817Z,23.3
2019-02-20T08:27:54.770Z,23.4
2019-02-20T08:33:00.896Z,23.3
2019-02-20T08:38:06.381Z,23.3
2019-02-20T08:43:12.232Z,23.3
2019-02-20T08:48:17.873Z,23.3
2019-02-20T08:53:23.864Z,23.4
2019-02-20T08:58:29.549Z,23.3
2019-02-20T09:03:36.130Z,23.3
2019-02-20T09:08:41.777Z,23.3
2019-02-20T09:13:46.917Z,23.3
2019-02-20T09:18:52.222Z,23.3
2019-02-20T09:23:58.209Z,22.8
2019-02-20T09:29:03.855Z,21.6
2019-02-20T09:34:08.866Z,22.1
2019-02-20T09:39:13.941Z,22.4
2019-02-20T09:44:19.931Z,22.6
2019-02-20T09:49:25.712Z,22.7
2019-02-20T09:54:30.773Z,22.8
2019-02-20T09:59:35.754Z,22.9
2019-02-20T10:04:40.911Z,22.9
2019-02-20T10:09:45.976Z,23
2019-02-20T10:14:51.513Z,23.1
2019-02-20T10:19:57.450Z,23.1
2019-02-20T10:25:02.738Z,23.1
2019-02-20T10:30:07.856Z,23.1
2019-02-20T10:35:13.065Z,23.1
2019-02-20T10:40:18.135Z,23.1
2019-02-20T10:45:23.589Z,23.1
2019-02-20T10:50:28.877Z,23.1
2019-02-20T10:55:34.699Z,23
2019-02-20T11:00:39.636Z,23.1
2019-02-20T11:05:43.811Z,23.1
2019-02-20T11:10:48.696Z,23.1
2019-02-20T11:15:54.456Z,23
2019-02-20T11:21:00.283Z,23.1
2019-02-20T11:26:06.692Z,23.1
2019-02-20T11:31:11.933Z,23.1
2019-02-20T11:36:17.764Z,23.1
2019-02-20T11:41:23.780Z,23
2019-02-20T11:46:29.376Z,23
2019-02-20T11:51:34.956Z,22.9
2019-02-20T11:56:40.297Z,22.9
2019-02-20T12:01:45.478Z,22.9
2019-02-20T12:06:50.596Z,22.9
2019-02-20T12:11:55.781Z,22.9
2019-02-20T12:17:01.121Z,22.9
2019-02-20T12:27:11.419Z,22.8
2019-02-20T12:32:17.327Z,22.8
2019-02-20T12:37:22.332Z,22.8
2019-02-20T12:42:29.712Z,22.8
2019-02-20T12:47:34.836Z,22.7
2019-02-20T12:52:39.868Z,22.8
2019-02-20T12:57:45.531Z,22.8
2019-02-20T13:02:50.593Z,22.2
2019-02-20T13:07:56.837Z,22.3
2019-02-20T13:13:02.597Z,22.4
2019-02-20T13:18:07.905Z,22.6
2019-02-20T13:23:13.458Z,22.6
2019-02-20T13:28:18.475Z,22.6
2019-02-20T13:33:23.632Z,22.6
2019-02-20T13:38:28.878Z,22.6
2019-02-20T13:43:33.939Z,22.6
2019-02-20T13:48:39.721Z,22.6
2019-02-20T13:53:48.453Z,22.6
2019-02-20T13:58:54.823Z,22.6
2019-02-20T14:04:00.119Z,22.6
2019-02-20T14:09:05.819Z,22.5
2019-02-20T14:14:11.189Z,22.6
2019-02-20T14:19:16.959Z,22.6
2019-02-20T14:24:22.815Z,22.6
2019-02-20T14:29:29.422Z,22.6
2019-02-20T14:34:35.257Z,22.6
2019-02-20T14:39:41.385Z,22.6
2019-02-20T14:44:46.916Z,22.6
2019-02-20T14:49:52.618Z,22.6
2019-02-20T14:54:57.983Z,22.5
2019-02-20T15:00:03.429Z,22.5
2019-02-20T15:05:09.592Z,22.5
2019-02-20T15:10:16.933Z,22.5
2019-02-20T15:15:22.454Z,22.6
2019-02-20T15:20:28.162Z,22.6
2019-02-20T15:25:31.895Z,22.5
2019-02-20T15:30:37.629Z,22.5
2019-02-20T15:35:43.212Z,22.5
2019-02-20T15:40:49.292Z,22.5
2019-02-20T15:45:55.285Z,22.5
2019-02-20T15:51:01.044Z,22.5
2019-02-20T15:56:07.051Z,22.5
2019-02-20T16:01:13.478Z,22.5
2019-02-20T16:06:19.128Z,22.5
2019-02-20T16:11:25.256Z,22.5
2019-02-20T16:16:30.900Z,22.5
2019-02-20T16:21:36.125Z,22.5
2019-02-20T16:26:42.257Z,22.5
2019-02-20T16:31:47.850Z,22.5
2019-02-20T16:36:53.657Z,22.5
2019-02-20T16:42:00.100Z,22.5
2019-02-20T16:47:05.328Z,22.5
2019-02-20T16:52:10.602Z,22.6
2019-02-20T16:57:16.611Z,22.7
2019-02-20T17:02:24.108Z,22.8
2019-02-20T17:07:29.719Z,22.8
2019-02-20T17:12:35.052Z,22.8
2019-02-20T17:17:41.848Z,22.8
2019-02-20T17:22:47.665Z,22.7
2019-02-20T17:27:52.869Z,22.8
2019-02-20T17:32:58.112Z,22.8
2019-02-20T17:38:03.793Z,22.8
2019-02-20T17:43:09.495Z,22.8
2019-02-20T17:48:14.825Z,22.8
2019-02-20T17:53:24.457Z,22.8
2019-02-20T17:58:28.772Z,22.8
2019-02-20T18:03:34.436Z,22.8
2019-02-20T18:08:39.973Z,22.9
2019-02-20T18:13:45.690Z,22.9
2019-02-20T18:23:53.421Z,23
2019-02-20T18:28:59.114Z,23
2019-02-20T18:34:04.230Z,23
2019-02-20T18:39:06.701Z,23
2019-02-20T18:44:15.163Z,22.8
2019-02-20T18:49:23.279Z,21.2
2019-02-20T18:54:28.970Z,21.2
2019-02-20T19:04:41.636Z,22.1
2019-02-20T19:09:46.684Z,22.5
2019-02-20T19:14:52.113Z,22.7
2019-02-20T19:19:57.531Z,22.9
2019-02-20T19:25:02.688Z,23
2019-02-20T19:30:11.457Z,23.1
2019-02-20T19:35:16.817Z,23.2
2019-02-20T19:40:22.748Z,23.2
2019-02-20T19:45:28.123Z,23.2
2019-02-20T19:50:35.055Z,23.3
2019-02-20T19:55:41.340Z,23.3
2019-02-20T20:00:47.286Z,23.3
2019-02-20T20:05:53.576Z,23.3
2019-02-20T20:10:59.381Z,23.2
2019-02-20T20:16:05.168Z,23.2
2019-02-20T20:21:10.404Z,23.3
2019-02-20T20:26:16.039Z,23.3
2019-02-20T20:31:21.911Z,23.3
2019-02-20T20:36:27.009Z,23.3
2019-02-20T20:41:32.039Z,23.2
2019-02-20T20:46:37.619Z,23.2
2019-02-20T20:51:43.199Z,23.2
2019-02-20T20:57:01.420Z,23.2
2019-02-20T21:01:57.150Z,23.2
2019-02-20T21:07:02.687Z,23.2
2019-02-20T21:12:10.226Z,23.2
2019-02-20T21:17:18.017Z,23.2
2019-02-20T21:22:23.184Z,23.2
2019-02-20T21:27:29.115Z,23.1
2019-02-20T21:32:34.503Z,23.1
2019-02-20T21:37:39.779Z,23.1
2019-02-20T21:42:45.891Z,23
2019-02-20T21:47:50.925Z,23
2019-02-20T21:52:55.988Z,22.9
2019-02-20T21:57:56.741Z,22.9
2019-02-20T22:03:02.301Z,22.9
2019-02-20T22:08:07.970Z,23
2019-02-20T22:13:13.579Z,22.9
2019-02-20T22:18:18.956Z,22.9
2019-02-20T22:23:24.912Z,22.9
2019-02-20T22:28:31.345Z,22.9
2019-02-20T22:33:39.349Z,22.9
2019-02-20T22:38:45.329Z,22.9
2019-02-20T22:43:53.154Z,22.9
2019-02-20T22:48:57.287Z,22.9
2019-02-20T22:54:02.965Z,22.9
2019-02-20T22:59:07.520Z,22.9
2019-02-20T23:04:13.148Z,22.9
2019-02-20T23:09:18.712Z,22.9
2019-02-20T23:14:24.563Z,22.9
2019-02-20T23:19:30.199Z,22.9
2019-02-20T23:24:35.312Z,22.9
2019-02-20T23:29:40.620Z,22.9
2019-02-20T23:34:46.132Z,22.8
2019-02-20T23:39:52.018Z,22.9
2019-02-20T23:50:01.771Z,22.8
2019-02-20T23:55:07.665Z,22.8
